sensor_id;sensor_type;location;lat;lon;timestamp;temperature;humidity
10662;DHT22;5379;51.034;7.006;2022-07-06T00:01:20;21.70;92.30
10662;DHT22;5379;51.034;7.006;2022-07-06T00:03:47;21.50;92.80
10662;DHT22;5379;51.034;7.006;2022-07-06T00:06:16;21.50;93.00
10662;DHT22;5379;51.034;7.006;2022-07-06T00:08:43;21.30;92.80
10662;DHT22;5379;51.034;7.006;2022-07-06T00:11:11;21.40;92.90
10662;DHT22;5379;51.034;7.006;2022-07-06T00:13:39;21.50;92.70
10662;DHT22;5379;51.034;7.006;2022-07-06T00:16:06;21.40;92.70
10662;DHT22;5379;51.034;7.006;2022-07-06T00:18:33;21.10;92.90
10662;DHT22;5379;51.034;7.006;2022-07-06T00:21:00;20.80;93.10
10662;DHT22;5379;51.034;7.006;2022-07-06T00:23:29;20.60;93.10
10662;DHT22;5379;51.034;7.006;2022-07-06T00:25:56;20.50;93.50
10662;DHT22;5379;51.034;7.006;2022-07-06T00:28:23;20.40;93.50
10662;DHT22;5379;51.034;7.006;2022-07-06T00:30:51;20.30;93.50
10662;DHT22;5379;51.034;7.006;2022-07-06T00:33:18;20.30;93.50
10662;DHT22;5379;51.034;7.006;2022-07-06T00:35:45;20.20;93.70
10662;DHT22;5379;51.034;7.006;2022-07-06T00:38:12;20.30;93.50
10662;DHT22;5379;51.034;7.006;2022-07-06T00:40:41;20.10;93.60
10662;DHT22;5379;51.034;7.006;2022-07-06T00:43:08;20.10;93.70
10662;DHT22;5379;51.034;7.006;2022-07-06T00:45:35;20.00;93.70
10662;DHT22;5379;51.034;7.006;2022-07-06T00:48:03;19.90;93.60
10662;DHT22;5379;51.034;7.006;2022-07-06T00:50:30;19.90;93.90
10662;DHT22;5379;51.034;7.006;2022-07-06T00:53:00;20.00;93.50
10662;DHT22;5379;51.034;7.006;2022-07-06T00:55:29;20.00;93.60
10662;DHT22;5379;51.034;7.006;2022-07-06T00:57:58;19.90;93.60
10662;DHT22;5379;51.034;7.006;2022-07-06T01:00:28;19.90;93.80
10662;DHT22;5379;51.034;7.006;2022-07-06T01:02:55;19.90;93.60
10662;DHT22;5379;51.034;7.006;2022-07-06T01:05:22;19.80;93.60
10662;DHT22;5379;51.034;7.006;2022-07-06T01:07:51;19.80;93.50
10662;DHT22;5379;51.034;7.006;2022-07-06T01:10:19;19.80;93.60
10662;DHT22;5379;51.034;7.006;2022-07-06T01:12:47;19.70;93.50
10662;DHT22;5379;51.034;7.006;2022-07-06T01:15:18;19.60;93.70
10662;DHT22;5379;51.034;7.006;2022-07-06T01:17:46;19.60;93.70
10662;DHT22;5379;51.034;7.006;2022-07-06T01:20:16;19.50;93.70
10662;DHT22;5379;51.034;7.006;2022-07-06T01:22:44;19.50;93.70
10662;DHT22;5379;51.034;7.006;2022-07-06T01:25:11;19.50;93.80
10662;DHT22;5379;51.034;7.006;2022-07-06T01:27:39;19.50;93.90
10662;DHT22;5379;51.034;7.006;2022-07-06T01:30:09;19.40;93.90
10662;DHT22;5379;51.034;7.006;2022-07-06T01:32:37;19.40;94.00
10662;DHT22;5379;51.034;7.006;2022-07-06T01:35:06;19.40;93.90
10662;DHT22;5379;51.034;7.006;2022-07-06T01:37:35;19.40;93.90
10662;DHT22;5379;51.034;7.006;2022-07-06T01:40:04;19.30;94.00
10662;DHT22;5379;51.034;7.006;2022-07-06T01:42:31;19.30;94.10
10662;DHT22;5379;51.034;7.006;2022-07-06T01:44:58;19.30;94.20
10662;DHT22;5379;51.034;7.006;2022-07-06T01:47:25;19.30;94.20
10662;DHT22;5379;51.034;7.006;2022-07-06T01:49:53;19.20;94.20
10662;DHT22;5379;51.034;7.006;2022-07-06T01:52:20;19.20;94.20
10662;DHT22;5379;51.034;7.006;2022-07-06T01:54:48;19.10;94.50
10662;DHT22;5379;51.034;7.006;2022-07-06T01:57:15;19.10;94.50
10662;DHT22;5379;51.034;7.006;2022-07-06T01:59:42;19.00;94.40
10662;DHT22;5379;51.034;7.006;2022-07-06T02:02:09;19.00;94.70
10662;DHT22;5379;51.034;7.006;2022-07-06T02:04:37;18.90;94.80
10662;DHT22;5379;51.034;7.006;2022-07-06T02:07:04;18.90;94.80
10662;DHT22;5379;51.034;7.006;2022-07-06T02:09:31;19.00;95.00
10662;DHT22;5379;51.034;7.006;2022-07-06T02:11:59;18.90;94.80
10662;DHT22;5379;51.034;7.006;2022-07-06T02:14:26;19.00;95.00
10662;DHT22;5379;51.034;7.006;2022-07-06T02:16:53;18.80;94.90
10662;DHT22;5379;51.034;7.006;2022-07-06T02:19:20;18.70;95.10
10662;DHT22;5379;51.034;7.006;2022-07-06T02:21:47;18.70;95.20
10662;DHT22;5379;51.034;7.006;2022-07-06T02:24:14;18.70;95.30
10662;DHT22;5379;51.034;7.006;2022-07-06T02:26:42;18.70;95.30
10662;DHT22;5379;51.034;7.006;2022-07-06T02:29:10;18.70;95.40
10662;DHT22;5379;51.034;7.006;2022-07-06T02:31:37;18.60;95.40
10662;DHT22;5379;51.034;7.006;2022-07-06T02:34:04;18.60;95.40
10662;DHT22;5379;51.034;7.006;2022-07-06T02:36:31;18.70;95.60
10662;DHT22;5379;51.034;7.006;2022-07-06T02:38:58;18.50;95.40
10662;DHT22;5379;51.034;7.006;2022-07-06T02:41:26;18.50;95.40
10662;DHT22;5379;51.034;7.006;2022-07-06T02:43:53;18.40;95.50
10662;DHT22;5379;51.034;7.006;2022-07-06T02:46:21;18.40;95.60
10662;DHT22;5379;51.034;7.006;2022-07-06T02:48:48;18.40;95.50
10662;DHT22;5379;51.034;7.006;2022-07-06T02:51:15;18.50;95.40
10662;DHT22;5379;51.034;7.006;2022-07-06T02:53:42;18.40;95.50
10662;DHT22;5379;51.034;7.006;2022-07-06T02:56:09;18.50;95.50
10662;DHT22;5379;51.034;7.006;2022-07-06T02:58:36;18.40;95.50
10662;DHT22;5379;51.034;7.006;2022-07-06T03:01:03;18.30;95.50
10662;DHT22;5379;51.034;7.006;2022-07-06T03:03:32;18.30;95.30
10662;DHT22;5379;51.034;7.006;2022-07-06T03:05:59;18.30;95.40
10662;DHT22;5379;51.034;7.006;2022-07-06T03:08:26;18.30;95.50
10662;DHT22;5379;51.034;7.006;2022-07-06T03:10:53;18.20;95.50
10662;DHT22;5379;51.034;7.006;2022-07-06T03:13:20;18.10;95.60
10662;DHT22;5379;51.034;7.006;2022-07-06T03:15:48;18.10;95.80
10662;DHT22;5379;51.034;7.006;2022-07-06T03:18:15;18.10;95.80
10662;DHT22;5379;51.034;7.006;2022-07-06T03:20:43;18.10;95.80
10662;DHT22;5379;51.034;7.006;2022-07-06T03:23:10;18.10;95.80
10662;DHT22;5379;51.034;7.006;2022-07-06T03:25:37;18.00;95.80
10662;DHT22;5379;51.034;7.006;2022-07-06T03:28:04;17.90;95.90
10662;DHT22;5379;51.034;7.006;2022-07-06T03:30:31;17.90;95.90
10662;DHT22;5379;51.034;7.006;2022-07-06T03:32:58;17.90;95.90
10662;DHT22;5379;51.034;7.006;2022-07-06T03:35:25;17.80;96.00
10662;DHT22;5379;51.034;7.006;2022-07-06T03:37:54;17.80;95.90
10662;DHT22;5379;51.034;7.006;2022-07-06T03:40:21;17.80;96.10
10662;DHT22;5379;51.034;7.006;2022-07-06T03:42:48;17.80;96.10
10662;DHT22;5379;51.034;7.006;2022-07-06T03:45:15;17.80;96.00
10662;DHT22;5379;51.034;7.006;2022-07-06T03:47:42;17.80;96.10
10662;DHT22;5379;51.034;7.006;2022-07-06T03:50:09;17.70;96.20
10662;DHT22;5379;51.034;7.006;2022-07-06T03:52:36;17.80;96.30
10662;DHT22;5379;51.034;7.006;2022-07-06T03:55:09;17.90;96.20
10662;DHT22;5379;51.034;7.006;2022-07-06T03:57:37;17.90;96.20
10662;DHT22;5379;51.034;7.006;2022-07-06T04:00:06;17.80;96.10
10662;DHT22;5379;51.034;7.006;2022-07-06T04:02:33;17.60;96.50
10662;DHT22;5379;51.034;7.006;2022-07-06T04:05:00;17.50;96.50
10662;DHT22;5379;51.034;7.006;2022-07-06T04:07:27;17.50;96.60
10662;DHT22;5379;51.034;7.006;2022-07-06T04:09:54;17.50;96.60
10662;DHT22;5379;51.034;7.006;2022-07-06T04:12:23;17.40;96.80
10662;DHT22;5379;51.034;7.006;2022-07-06T04:14:50;17.40;97.00
10662;DHT22;5379;51.034;7.006;2022-07-06T04:17:17;17.40;97.00
10662;DHT22;5379;51.034;7.006;2022-07-06T04:20:01;17.50;97.00
10662;DHT22;5379;51.034;7.006;2022-07-06T04:22:29;17.50;96.90
10662;DHT22;5379;51.034;7.006;2022-07-06T04:24:56;17.50;96.80
10662;DHT22;5379;51.034;7.006;2022-07-06T04:27:24;17.40;97.00
10662;DHT22;5379;51.034;7.006;2022-07-06T04:29:53;17.40;97.10
10662;DHT22;5379;51.034;7.006;2022-07-06T04:32:20;17.40;97.20
10662;DHT22;5379;51.034;7.006;2022-07-06T04:34:47;17.50;97.10
10662;DHT22;5379;51.034;7.006;2022-07-06T04:37:14;17.50;97.10
10662;DHT22;5379;51.034;7.006;2022-07-06T04:39:41;17.50;97.00
10662;DHT22;5379;51.034;7.006;2022-07-06T04:42:08;17.50;97.10
10662;DHT22;5379;51.034;7.006;2022-07-06T04:44:36;17.60;97.00
10662;DHT22;5379;51.034;7.006;2022-07-06T04:47:04;17.60;97.20
10662;DHT22;5379;51.034;7.006;2022-07-06T04:49:31;17.60;97.20
10662;DHT22;5379;51.034;7.006;2022-07-06T04:51:58;17.60;97.00
10662;DHT22;5379;51.034;7.006;2022-07-06T04:54:25;17.50;97.20
10662;DHT22;5379;51.034;7.006;2022-07-06T04:56:52;17.50;97.20
10662;DHT22;5379;51.034;7.006;2022-07-06T04:59:19;17.50;97.60
10662;DHT22;5379;51.034;7.006;2022-07-06T05:01:48;17.60;97.50
10662;DHT22;5379;51.034;7.006;2022-07-06T05:04:15;17.70;97.50
10662;DHT22;5379;51.034;7.006;2022-07-06T05:06:44;17.70;97.50
10662;DHT22;5379;51.034;7.006;2022-07-06T05:09:11;17.80;97.30
10662;DHT22;5379;51.034;7.006;2022-07-06T05:11:38;17.90;97.30
10662;DHT22;5379;51.034;7.006;2022-07-06T05:14:06;18.10;97.20
10662;DHT22;5379;51.034;7.006;2022-07-06T05:16:33;18.10;97.30
10662;DHT22;5379;51.034;7.006;2022-07-06T05:19:02;18.10;97.40
10662;DHT22;5379;51.034;7.006;2022-07-06T05:21:29;18.40;97.00
10662;DHT22;5379;51.034;7.006;2022-07-06T05:23:56;18.40;97.10
10662;DHT22;5379;51.034;7.006;2022-07-06T05:26:23;18.60;96.80
10662;DHT22;5379;51.034;7.006;2022-07-06T05:28:50;18.50;96.60
10662;DHT22;5379;51.034;7.006;2022-07-06T05:31:17;18.50;96.80
10662;DHT22;5379;51.034;7.006;2022-07-06T05:33:44;18.60;96.70
10662;DHT22;5379;51.034;7.006;2022-07-06T05:36:12;18.50;96.50
10662;DHT22;5379;51.034;7.006;2022-07-06T05:38:39;18.40;96.70
10662;DHT22;5379;51.034;7.006;2022-07-06T05:41:07;18.30;97.20
10662;DHT22;5379;51.034;7.006;2022-07-06T05:43:35;18.40;97.30
10662;DHT22;5379;51.034;7.006;2022-07-06T05:46:02;18.40;97.10
10662;DHT22;5379;51.034;7.006;2022-07-06T05:48:29;18.50;97.00
10662;DHT22;5379;51.034;7.006;2022-07-06T05:51:12;18.50;96.90
10662;DHT22;5379;51.034;7.006;2022-07-06T05:53:39;18.40;97.10
10662;DHT22;5379;51.034;7.006;2022-07-06T05:56:06;18.50;97.10
10662;DHT22;5379;51.034;7.006;2022-07-06T05:58:33;18.60;96.90
10662;DHT22;5379;51.034;7.006;2022-07-06T06:01:00;18.40;96.90
10662;DHT22;5379;51.034;7.006;2022-07-06T06:03:27;18.50;97.00
10662;DHT22;5379;51.034;7.006;2022-07-06T06:05:54;18.40;97.00
10662;DHT22;5379;51.034;7.006;2022-07-06T06:08:22;18.50;97.50
10662;DHT22;5379;51.034;7.006;2022-07-06T06:10:49;18.70;96.80
10662;DHT22;5379;51.034;7.006;2022-07-06T06:13:16;18.80;96.80
10662;DHT22;5379;51.034;7.006;2022-07-06T06:15:43;18.70;96.70
10662;DHT22;5379;51.034;7.006;2022-07-06T06:18:11;19.00;96.50
10662;DHT22;5379;51.034;7.006;2022-07-06T06:20:38;18.80;96.30
10662;DHT22;5379;51.034;7.006;2022-07-06T06:23:05;18.80;96.60
10662;DHT22;5379;51.034;7.006;2022-07-06T06:25:36;18.90;96.70
10662;DHT22;5379;51.034;7.006;2022-07-06T06:28:04;19.10;96.50
10662;DHT22;5379;51.034;7.006;2022-07-06T06:30:32;19.10;96.50
10662;DHT22;5379;51.034;7.006;2022-07-06T06:33:10;19.20;96.20
10662;DHT22;5379;51.034;7.006;2022-07-06T06:35:38;19.20;96.00
10662;DHT22;5379;51.034;7.006;2022-07-06T06:38:05;19.20;96.00
10662;DHT22;5379;51.034;7.006;2022-07-06T06:40:34;19.40;96.10
10662;DHT22;5379;51.034;7.006;2022-07-06T06:43:01;19.40;96.20
10662;DHT22;5379;51.034;7.006;2022-07-06T06:45:28;19.40;96.00
10662;DHT22;5379;51.034;7.006;2022-07-06T06:47:55;19.50;95.70
10662;DHT22;5379;51.034;7.006;2022-07-06T06:50:22;19.40;95.50
10662;DHT22;5379;51.034;7.006;2022-07-06T06:52:49;19.30;95.90
10662;DHT22;5379;51.034;7.006;2022-07-06T06:55:17;19.30;95.80
10662;DHT22;5379;51.034;7.006;2022-07-06T06:57:45;19.40;95.80
10662;DHT22;5379;51.034;7.006;2022-07-06T07:00:13;19.50;95.80
10662;DHT22;5379;51.034;7.006;2022-07-06T07:02:40;19.70;95.40
10662;DHT22;5379;51.034;7.006;2022-07-06T07:05:07;19.60;95.80
10662;DHT22;5379;51.034;7.006;2022-07-06T07:07:34;19.80;95.30
10662;DHT22;5379;51.034;7.006;2022-07-06T07:10:03;19.70;95.90
10662;DHT22;5379;51.034;7.006;2022-07-06T07:12:30;19.70;95.30
10662;DHT22;5379;51.034;7.006;2022-07-06T07:15:00;19.90;95.40
10662;DHT22;5379;51.034;7.006;2022-07-06T07:17:27;19.90;95.40
10662;DHT22;5379;51.034;7.006;2022-07-06T07:19:54;19.80;95.10
10662;DHT22;5379;51.034;7.006;2022-07-06T07:22:23;19.90;95.60
10662;DHT22;5379;51.034;7.006;2022-07-06T07:24:50;19.90;95.40
10662;DHT22;5379;51.034;7.006;2022-07-06T07:27:17;19.90;95.40
10662;DHT22;5379;51.034;7.006;2022-07-06T07:29:44;20.20;95.30
10662;DHT22;5379;51.034;7.006;2022-07-06T07:32:12;20.40;95.20
10662;DHT22;5379;51.034;7.006;2022-07-06T07:34:39;20.60;94.70
10662;DHT22;5379;51.034;7.006;2022-07-06T07:37:06;20.80;94.50
10662;DHT22;5379;51.034;7.006;2022-07-06T07:39:33;20.90;94.40
10662;DHT22;5379;51.034;7.006;2022-07-06T07:42:01;20.90;94.60
10662;DHT22;5379;51.034;7.006;2022-07-06T07:44:28;20.70;94.20
10662;DHT22;5379;51.034;7.006;2022-07-06T07:46:55;20.90;93.90
10662;DHT22;5379;51.034;7.006;2022-07-06T07:49:23;21.10;93.80
10662;DHT22;5379;51.034;7.006;2022-07-06T07:51:50;21.20;93.70
10662;DHT22;5379;51.034;7.006;2022-07-06T07:54:17;21.70;94.00
10662;DHT22;5379;51.034;7.006;2022-07-06T07:56:44;22.20;93.00
10662;DHT22;5379;51.034;7.006;2022-07-06T07:59:11;22.80;95.20
10662;DHT22;5379;51.034;7.006;2022-07-06T08:01:38;23.30;92.90
10662;DHT22;5379;51.034;7.006;2022-07-06T08:04:06;23.80;93.80
10662;DHT22;5379;51.034;7.006;2022-07-06T08:06:34;24.10;92.60
10662;DHT22;5379;51.034;7.006;2022-07-06T08:09:02;23.20;91.70
10662;DHT22;5379;51.034;7.006;2022-07-06T08:11:30;22.40;92.30
10662;DHT22;5379;51.034;7.006;2022-07-06T08:13:57;21.70;93.20
10662;DHT22;5379;51.034;7.006;2022-07-06T08:16:25;21.50;94.10
10662;DHT22;5379;51.034;7.006;2022-07-06T08:18:52;21.40;93.40
10662;DHT22;5379;51.034;7.006;2022-07-06T08:21:19;21.30;93.00
10662;DHT22;5379;51.034;7.006;2022-07-06T08:23:47;21.10;93.30
10662;DHT22;5379;51.034;7.006;2022-07-06T08:26:15;21.00;93.60
10662;DHT22;5379;51.034;7.006;2022-07-06T08:28:42;21.00;93.70
10662;DHT22;5379;51.034;7.006;2022-07-06T08:31:09;21.10;93.90
10662;DHT22;5379;51.034;7.006;2022-07-06T08:33:36;21.40;93.20
10662;DHT22;5379;51.034;7.006;2022-07-06T08:36:03;21.30;93.10
10662;DHT22;5379;51.034;7.006;2022-07-06T08:38:31;21.20;93.00
10662;DHT22;5379;51.034;7.006;2022-07-06T08:41:00;21.20;92.90
10662;DHT22;5379;51.034;7.006;2022-07-06T08:43:27;21.20;92.30
10662;DHT22;5379;51.034;7.006;2022-07-06T08:45:54;21.50;92.30
10662;DHT22;5379;51.034;7.006;2022-07-06T08:48:23;21.40;92.80
10662;DHT22;5379;51.034;7.006;2022-07-06T08:50:52;21.00;93.10
10662;DHT22;5379;51.034;7.006;2022-07-06T08:53:20;21.00;93.50
10662;DHT22;5379;51.034;7.006;2022-07-06T08:55:48;21.20;92.60
10662;DHT22;5379;51.034;7.006;2022-07-06T08:58:17;21.30;93.00
10662;DHT22;5379;51.034;7.006;2022-07-06T09:00:45;21.60;92.20
10662;DHT22;5379;51.034;7.006;2022-07-06T09:03:12;21.50;92.60
10662;DHT22;5379;51.034;7.006;2022-07-06T09:05:41;21.50;92.70
10662;DHT22;5379;51.034;7.006;2022-07-06T09:08:09;21.50;92.20
10662;DHT22;5379;51.034;7.006;2022-07-06T09:10:36;21.50;92.10
10662;DHT22;5379;51.034;7.006;2022-07-06T09:13:04;21.60;92.20
10662;DHT22;5379;51.034;7.006;2022-07-06T09:15:34;21.60;91.30
10662;DHT22;5379;51.034;7.006;2022-07-06T09:18:05;21.80;91.20
10662;DHT22;5379;51.034;7.006;2022-07-06T09:20:32;21.60;88.20
10662;DHT22;5379;51.034;7.006;2022-07-06T09:23:01;21.70;89.70
10662;DHT22;5379;51.034;7.006;2022-07-06T09:25:28;21.70;90.10
10662;DHT22;5379;51.034;7.006;2022-07-06T09:27:57;22.00;90.60
10662;DHT22;5379;51.034;7.006;2022-07-06T09:30:25;22.20;90.40
10662;DHT22;5379;51.034;7.006;2022-07-06T09:32:56;21.90;91.40
10662;DHT22;5379;51.034;7.006;2022-07-06T09:35:25;22.00;91.00
10662;DHT22;5379;51.034;7.006;2022-07-06T09:38:06;22.10;90.50
10662;DHT22;5379;51.034;7.006;2022-07-06T09:40:35;22.30;90.20
10662;DHT22;5379;51.034;7.006;2022-07-06T09:43:10;22.70;90.50
10662;DHT22;5379;51.034;7.006;2022-07-06T09:45:38;22.90;90.40
10662;DHT22;5379;51.034;7.006;2022-07-06T09:48:09;22.90;90.20
10662;DHT22;5379;51.034;7.006;2022-07-06T09:50:41;22.90;90.80
10662;DHT22;5379;51.034;7.006;2022-07-06T09:53:09;23.90;93.20
10662;DHT22;5379;51.034;7.006;2022-07-06T09:55:36;23.60;90.60
10662;DHT22;5379;51.034;7.006;2022-07-06T09:58:04;23.40;90.20
10662;DHT22;5379;51.034;7.006;2022-07-06T10:00:31;23.40;90.40
10662;DHT22;5379;51.034;7.006;2022-07-06T10:03:00;23.60;90.80
10662;DHT22;5379;51.034;7.006;2022-07-06T10:05:29;23.70;91.90
10662;DHT22;5379;51.034;7.006;2022-07-06T10:08:00;24.10;92.10
10662;DHT22;5379;51.034;7.006;2022-07-06T10:10:29;24.10;88.90
10662;DHT22;5379;51.034;7.006;2022-07-06T10:12:57;24.50;91.20
10662;DHT22;5379;51.034;7.006;2022-07-06T10:15:26;24.30;90.00
10662;DHT22;5379;51.034;7.006;2022-07-06T10:17:53;24.10;92.20
10662;DHT22;5379;51.034;7.006;2022-07-06T10:20:22;24.00;92.50
10662;DHT22;5379;51.034;7.006;2022-07-06T10:22:51;22.40;88.80
10662;DHT22;5379;51.034;7.006;2022-07-06T10:25:18;23.50;90.50
10662;DHT22;5379;51.034;7.006;2022-07-06T10:27:47;23.70;90.40
10662;DHT22;5379;51.034;7.006;2022-07-06T10:30:15;23.90;91.30
10662;DHT22;5379;51.034;7.006;2022-07-06T10:32:45;23.50;90.80
10662;DHT22;5379;51.034;7.006;2022-07-06T10:35:13;23.50;90.60
10662;DHT22;5379;51.034;7.006;2022-07-06T10:37:41;23.30;90.50
10662;DHT22;5379;51.034;7.006;2022-07-06T10:40:12;23.40;90.60
10662;DHT22;5379;51.034;7.006;2022-07-06T10:42:58;23.10;90.40
10662;DHT22;5379;51.034;7.006;2022-07-06T10:45:49;23.20;90.60
10662;DHT22;5379;51.034;7.006;2022-07-06T10:48:17;23.20;90.80
10662;DHT22;5379;51.034;7.006;2022-07-06T10:50:48;23.70;92.40
10662;DHT22;5379;51.034;7.006;2022-07-06T10:53:16;24.20;90.90
10662;DHT22;5379;51.034;7.006;2022-07-06T10:55:46;24.70;90.90
10662;DHT22;5379;51.034;7.006;2022-07-06T10:58:34;25.10;92.90
10662;DHT22;5379;51.034;7.006;2022-07-06T11:01:01;25.40;93.00
10662;DHT22;5379;51.034;7.006;2022-07-06T11:03:33;25.80;93.00
10662;DHT22;5379;51.034;7.006;2022-07-06T11:06:01;25.90;91.00
10662;DHT22;5379;51.034;7.006;2022-07-06T11:09:02;25.60;86.50
10662;DHT22;5379;51.034;7.006;2022-07-06T11:11:42;25.00;84.90
10662;DHT22;5379;51.034;7.006;2022-07-06T11:14:12;24.60;83.80
10662;DHT22;5379;51.034;7.006;2022-07-06T11:17:00;24.00;84.80
10662;DHT22;5379;51.034;7.006;2022-07-06T11:19:29;23.70;85.30
10662;DHT22;5379;51.034;7.006;2022-07-06T11:21:57;24.00;89.10
10662;DHT22;5379;51.034;7.006;2022-07-06T11:24:26;23.60;84.80
10662;DHT22;5379;51.034;7.006;2022-07-06T11:26:57;23.90;84.10
10662;DHT22;5379;51.034;7.006;2022-07-06T11:29:25;24.40;86.20
10662;DHT22;5379;51.034;7.006;2022-07-06T11:31:53;24.20;83.70
10662;DHT22;5379;51.034;7.006;2022-07-06T11:34:22;23.80;84.10
10662;DHT22;5379;51.034;7.006;2022-07-06T11:36:54;24.20;88.40
10662;DHT22;5379;51.034;7.006;2022-07-06T11:39:22;24.40;84.90
10662;DHT22;5379;51.034;7.006;2022-07-06T11:41:49;24.70;87.70
10662;DHT22;5379;51.034;7.006;2022-07-06T11:44:17;25.20;91.80
10662;DHT22;5379;51.034;7.006;2022-07-06T11:46:45;24.80;83.20
10662;DHT22;5379;51.034;7.006;2022-07-06T11:49:12;24.70;83.00
10662;DHT22;5379;51.034;7.006;2022-07-06T11:51:40;24.60;84.10
10662;DHT22;5379;51.034;7.006;2022-07-06T11:54:09;24.60;85.00
10662;DHT22;5379;51.034;7.006;2022-07-06T11:56:37;24.90;83.70
10662;DHT22;5379;51.034;7.006;2022-07-06T11:59:04;25.30;84.90
10662;DHT22;5379;51.034;7.006;2022-07-06T12:01:33;25.40;82.90
10662;DHT22;5379;51.034;7.006;2022-07-06T12:04:02;25.70;91.40
10662;DHT22;5379;51.034;7.006;2022-07-06T12:06:30;25.50;81.80
10662;DHT22;5379;51.034;7.006;2022-07-06T12:08:58;25.30;82.10
10662;DHT22;5379;51.034;7.006;2022-07-06T12:11:27;25.40;84.90
10662;DHT22;5379;51.034;7.006;2022-07-06T12:13:56;25.20;90.60
10662;DHT22;5379;51.034;7.006;2022-07-06T12:16:29;25.60;91.60
10662;DHT22;5379;51.034;7.006;2022-07-06T12:18:58;25.50;81.80
10662;DHT22;5379;51.034;7.006;2022-07-06T12:21:25;25.50;88.00
10662;DHT22;5379;51.034;7.006;2022-07-06T12:23:53;25.60;82.30
10662;DHT22;5379;51.034;7.006;2022-07-06T12:26:22;25.80;91.10
10662;DHT22;5379;51.034;7.006;2022-07-06T12:29:01;25.90;88.60
10662;DHT22;5379;51.034;7.006;2022-07-06T12:31:32;25.90;88.80
10662;DHT22;5379;51.034;7.006;2022-07-06T12:34:02;25.60;83.10
10662;DHT22;5379;51.034;7.006;2022-07-06T12:36:29;25.20;90.80
10662;DHT22;5379;51.034;7.006;2022-07-06T12:38:56;25.50;87.30
10662;DHT22;5379;51.034;7.006;2022-07-06T12:41:25;25.70;84.30
10662;DHT22;5379;51.034;7.006;2022-07-06T12:44:01;25.10;83.50
10662;DHT22;5379;51.034;7.006;2022-07-06T12:46:30;25.00;87.00
10662;DHT22;5379;51.034;7.006;2022-07-06T12:48:58;25.20;86.40
10662;DHT22;5379;51.034;7.006;2022-07-06T12:51:27;25.60;87.30
10662;DHT22;5379;51.034;7.006;2022-07-06T12:54:12;25.40;84.80
10662;DHT22;5379;51.034;7.006;2022-07-06T12:57:07;25.30;85.80
10662;DHT22;5379;51.034;7.006;2022-07-06T12:59:37;25.70;84.30
10662;DHT22;5379;51.034;7.006;2022-07-06T13:02:05;25.80;91.70
10662;DHT22;5379;51.034;7.006;2022-07-06T13:04:33;25.40;83.70
10662;DHT22;5379;51.034;7.006;2022-07-06T13:07:02;25.70;92.70
10662;DHT22;5379;51.034;7.006;2022-07-06T13:09:30;25.70;87.60
10662;DHT22;5379;51.034;7.006;2022-07-06T13:11:57;24.60;82.30
10662;DHT22;5379;51.034;7.006;2022-07-06T13:14:24;25.50;81.90
10662;DHT22;5379;51.034;7.006;2022-07-06T13:16:51;25.30;82.10
10662;DHT22;5379;51.034;7.006;2022-07-06T13:19:19;24.50;81.80
10662;DHT22;5379;51.034;7.006;2022-07-06T13:21:46;24.90;83.30
10662;DHT22;5379;51.034;7.006;2022-07-06T13:24:15;25.40;92.50
10662;DHT22;5379;51.034;7.006;2022-07-06T13:26:42;25.50;92.10
10662;DHT22;5379;51.034;7.006;2022-07-06T13:29:10;25.40;90.70
10662;DHT22;5379;51.034;7.006;2022-07-06T13:31:38;25.80;92.90
10662;DHT22;5379;51.034;7.006;2022-07-06T13:34:06;26.00;92.50
10662;DHT22;5379;51.034;7.006;2022-07-06T13:36:34;26.20;92.70
10662;DHT22;5379;51.034;7.006;2022-07-06T13:39:02;26.20;90.10
10662;DHT22;5379;51.034;7.006;2022-07-06T13:41:31;26.10;90.90
10662;DHT22;5379;51.034;7.006;2022-07-06T13:43:58;25.70;83.70
10662;DHT22;5379;51.034;7.006;2022-07-06T13:46:26;25.90;87.50
10662;DHT22;5379;51.034;7.006;2022-07-06T13:48:54;25.90;91.10
10662;DHT22;5379;51.034;7.006;2022-07-06T13:51:22;25.90;89.40
10662;DHT22;5379;51.034;7.006;2022-07-06T13:53:50;26.10;89.00
10662;DHT22;5379;51.034;7.006;2022-07-06T13:56:17;26.30;87.90
10662;DHT22;5379;51.034;7.006;2022-07-06T13:58:46;26.20;86.40
10662;DHT22;5379;51.034;7.006;2022-07-06T14:01:13;26.30;91.80
10662;DHT22;5379;51.034;7.006;2022-07-06T14:03:40;26.00;89.30
10662;DHT22;5379;51.034;7.006;2022-07-06T14:06:08;26.10;87.90
10662;DHT22;5379;51.034;7.006;2022-07-06T14:08:36;26.20;90.60
10662;DHT22;5379;51.034;7.006;2022-07-06T14:11:04;25.90;92.70
10662;DHT22;5379;51.034;7.006;2022-07-06T14:13:31;25.90;91.70
10662;DHT22;5379;51.034;7.006;2022-07-06T14:16:00;25.70;90.00
10662;DHT22;5379;51.034;7.006;2022-07-06T14:18:27;26.10;92.50
10662;DHT22;5379;51.034;7.006;2022-07-06T14:20:55;26.20;92.20
10662;DHT22;5379;51.034;7.006;2022-07-06T14:23:22;26.20;90.00
10662;DHT22;5379;51.034;7.006;2022-07-06T14:25:50;26.10;86.00
10662;DHT22;5379;51.034;7.006;2022-07-06T14:28:18;26.00;87.60
10662;DHT22;5379;51.034;7.006;2022-07-06T14:30:45;26.10;85.30
10662;DHT22;5379;51.034;7.006;2022-07-06T14:33:15;26.00;91.20
10662;DHT22;5379;51.034;7.006;2022-07-06T14:35:43;26.10;92.00
10662;DHT22;5379;51.034;7.006;2022-07-06T14:38:12;25.90;87.20
10662;DHT22;5379;51.034;7.006;2022-07-06T14:40:40;25.90;88.10
10662;DHT22;5379;51.034;7.006;2022-07-06T14:43:07;26.10;91.60
10662;DHT22;5379;51.034;7.006;2022-07-06T14:45:34;26.30;90.70
10662;DHT22;5379;51.034;7.006;2022-07-06T14:48:01;26.30;92.30
10662;DHT22;5379;51.034;7.006;2022-07-06T14:50:30;26.30;92.50
10662;DHT22;5379;51.034;7.006;2022-07-06T14:52:57;26.30;92.60
10662;DHT22;5379;51.034;7.006;2022-07-06T14:55:24;26.20;92.80
10662;DHT22;5379;51.034;7.006;2022-07-06T14:57:51;26.10;92.80
10662;DHT22;5379;51.034;7.006;2022-07-06T15:00:21;26.10;92.70
10662;DHT22;5379;51.034;7.006;2022-07-06T15:02:48;25.80;86.40
10662;DHT22;5379;51.034;7.006;2022-07-06T15:05:15;26.10;90.60
10662;DHT22;5379;51.034;7.006;2022-07-06T15:07:43;26.40;91.50
10662;DHT22;5379;51.034;7.006;2022-07-06T15:10:11;26.80;91.50
10662;DHT22;5379;51.034;7.006;2022-07-06T15:12:38;26.30;82.50
10662;DHT22;5379;51.034;7.006;2022-07-06T15:15:06;26.20;88.60
10662;DHT22;5379;51.034;7.006;2022-07-06T15:17:33;26.50;91.10
10662;DHT22;5379;51.034;7.006;2022-07-06T15:20:00;26.50;91.80
10662;DHT22;5379;51.034;7.006;2022-07-06T15:22:27;26.20;92.70
10662;DHT22;5379;51.034;7.006;2022-07-06T15:24:56;25.90;88.90
10662;DHT22;5379;51.034;7.006;2022-07-06T15:27:23;26.30;92.10
10662;DHT22;5379;51.034;7.006;2022-07-06T15:29:50;26.40;90.70
10662;DHT22;5379;51.034;7.006;2022-07-06T15:32:17;26.60;90.50
10662;DHT22;5379;51.034;7.006;2022-07-06T15:34:44;26.10;83.60
10662;DHT22;5379;51.034;7.006;2022-07-06T15:37:11;25.90;82.00
10662;DHT22;5379;51.034;7.006;2022-07-06T15:39:38;25.80;83.20
10662;DHT22;5379;51.034;7.006;2022-07-06T15:42:07;26.30;91.20
10662;DHT22;5379;51.034;7.006;2022-07-06T15:44:34;26.40;90.70
10662;DHT22;5379;51.034;7.006;2022-07-06T15:47:05;26.50;90.20
10662;DHT22;5379;51.034;7.006;2022-07-06T15:49:33;26.50;91.60
10662;DHT22;5379;51.034;7.006;2022-07-06T15:52:00;26.30;91.20